This is the latest recevied weather packets stored in our database for station/object NF3Q. If no packets are shown the sender has not sent any weather packets the latest 10 day(s).
| Time | Temp. | Humidity | Pressure | Rain* | Wind** | Luminosity | Snow |
|---|---|---|---|---|---|---|---|
| 1777347613 | 16.67° C | 51% | 1016 hPa | 0 mm | - | - | - |
| 1777346704 | 16.67° C | 51% | 1016 hPa | 0 mm | - | - | - |
| 1777342804 | 17.78° C | 47% | 1016.7 hPa | 0 mm | - | - | - |
| 1777340723 | 18.33° C | 44% | 1017.2 hPa | 0 mm | - | - | - |
| 1777339209 | 18.89° C | - | 1017.5 hPa | 0 mm | - | - | - |
| 1777338016 | 19.44° C | 41% | 1017.7 hPa | 0 mm | - | - | - |
| 1777337704 | 19.44° C | - | 1017.8 hPa | 0 mm | - | - | - |
| 1777336811 | 20° C | 39% | 1017.7 hPa | 0 mm | - | - | - |
| 1777336511 | 20° C | 39% | 1017.7 hPa | 0 mm | - | - | - |
| 1777333522 | 21.11° C | 36% | 1017.6 hPa | 0 mm | - | - | - |
| 1777332011 | 21.67° C | 35% | 1017.5 hPa | 0 mm | - | - | - |
| 1777331412 | 22.22° C | 35% | 1017.6 hPa | 0 mm | - | - | - |
| 1777329604 | 22.78° C | 34% | 1017.9 hPa | 0 mm | - | - | - |
| 1777329308 | 22.78° C | 34% | 1018 hPa | 0 mm | - | - | - |
| 1777328705 | 23.33° C | 34% | 1018.4 hPa | 0 mm | - | - | - |
| 1777328107 | 23.33° C | 35% | 1018.2 hPa | 0 mm | - | - | - |
| 1777327225 | 23.89° C | 33% | 1018.2 hPa | 0 mm | - | - | - |
| 1777326905 | 23.89° C | 32% | 1018.1 hPa | 0 mm | - | - | - |
| 1777326009 | 23.89° C | 32% | 1017.7 hPa | 0 mm | - | - | - |
| 1777324804 | 24.44° C | 32% | 1017.8 hPa | 0 mm | - | - | - |
| 1777323905 | 24.44° C | 30% | 1017.9 hPa | 0 mm | - | - | - |
| 1777323615 | 24.44° C | 28% | 1018 hPa | 0 mm | - | - | - |
| 1777322718 | 25° C | 31% | 1018.1 hPa | 0 mm | - | - | - |
| 1777321509 | 25° C | 29% | 1018.2 hPa | 0 mm | - | - | - |
| 1777320604 | 24.44° C | 29% | 1018.2 hPa | 0 mm | - | - | - |
* Rain latest hour (hover to see other rain measurements)
** Current wind speed in m/s (hover to see current wind gust speed)